createdAt,value
2022-10-01T00:02:17.720Z,21.51
2022-10-01T00:04:44.486Z,21.74
2022-10-01T00:07:15.196Z,21.75
2022-10-01T00:09:42.145Z,21.85
2022-10-01T00:12:08.934Z,22.00
2022-10-01T00:14:38.962Z,22.06
2022-10-01T00:17:05.702Z,21.98
2022-10-01T00:19:32.449Z,20.32
2022-10-01T00:21:59.259Z,17.85
2022-10-01T00:24:26.033Z,18.65
2022-10-01T00:26:53.103Z,20.17
2022-10-01T00:29:19.865Z,20.84
2022-10-01T00:31:46.680Z,21.39
2022-10-01T00:34:15.318Z,21.49
2022-10-01T00:36:42.206Z,21.76
2022-10-01T00:39:09.268Z,21.78
2022-10-01T00:41:36.306Z,21.82
2022-10-01T00:44:03.237Z,21.88
2022-10-01T00:46:29.982Z,21.98
2022-10-01T00:48:58.079Z,22.43
2022-10-01T00:51:24.905Z,19.66
2022-10-01T00:53:51.715Z,17.67
2022-10-01T00:56:18.842Z,18.82
2022-10-01T00:58:45.626Z,20.15
2022-10-01T01:01:12.421Z,20.74
2022-10-01T01:03:39.202Z,21.08
2022-10-01T01:06:08.031Z,21.34
2022-10-01T01:08:34.780Z,21.55
2022-10-01T01:11:01.662Z,21.69
2022-10-01T01:13:28.425Z,21.67
2022-10-01T01:15:55.378Z,21.84
2022-10-01T01:18:22.240Z,22.00
2022-10-01T01:20:48.994Z,22.02
2022-10-01T01:23:18.608Z,21.29
2022-10-01T01:25:45.365Z,17.87
2022-10-01T01:28:12.197Z,17.22
2022-10-01T01:30:40.165Z,19.50
2022-10-01T01:33:07.009Z,20.25
2022-10-01T01:35:33.774Z,20.86
2022-10-01T01:38:01.636Z,21.25
2022-10-01T01:40:28.401Z,21.28
2022-10-01T01:42:55.798Z,21.50
2022-10-01T01:45:22.553Z,21.72
2022-10-01T01:47:49.319Z,21.67
2022-10-01T01:50:16.372Z,21.79
2022-10-01T01:52:43.113Z,21.90
2022-10-01T01:55:09.906Z,21.81
2022-10-01T01:57:36.699Z,22.06
2022-10-01T02:00:03.873Z,22.11
2022-10-01T02:02:33.051Z,18.54
2022-10-01T02:05:00.517Z,17.75
2022-10-01T02:07:27.265Z,19.58
2022-10-01T02:09:54.024Z,20.47
2022-10-01T02:12:20.824Z,21.08
2022-10-01T02:14:47.601Z,21.31
2022-10-01T02:17:16.455Z,21.54
2022-10-01T02:19:44.296Z,21.66
2022-10-01T02:22:11.060Z,21.86
2022-10-01T02:24:38.349Z,21.91
2022-10-01T02:27:05.117Z,22.00
2022-10-01T02:29:31.856Z,22.04
2022-10-01T02:31:58.658Z,21.89
2022-10-01T02:34:25.477Z,18.26
2022-10-01T02:36:52.214Z,17.76
2022-10-01T02:39:18.945Z,19.83
2022-10-01T02:41:45.718Z,20.44
2022-10-01T02:44:12.509Z,21.03
2022-10-01T02:46:39.934Z,21.17
2022-10-01T02:49:06.691Z,21.45
2022-10-01T02:51:33.890Z,21.71
2022-10-01T02:54:00.931Z,21.74
2022-10-01T02:56:49.031Z,21.73
2022-10-01T02:59:16.270Z,21.84
2022-10-01T03:01:43.099Z,22.07
2022-10-01T03:04:09.899Z,22.21
2022-10-01T03:06:36.731Z,21.01
2022-10-01T03:09:03.537Z,17.99
2022-10-01T03:11:30.508Z,18.52
2022-10-01T03:13:58.187Z,20.03
2022-10-01T03:16:25.033Z,20.71
2022-10-01T03:18:51.821Z,21.22
2022-10-01T03:21:18.567Z,21.38
2022-10-01T03:23:45.342Z,21.59
2022-10-01T03:26:12.124Z,21.77
2022-10-01T03:28:38.909Z,21.83
2022-10-01T03:31:05.792Z,22.06
2022-10-01T03:33:32.601Z,22.00
2022-10-01T03:35:59.567Z,22.04
2022-10-01T03:38:26.305Z,22.03
2022-10-01T03:40:53.159Z,22.07
2022-10-01T03:43:19.901Z,21.26
2022-10-01T03:45:46.676Z,21.71
2022-10-01T03:48:13.490Z,22.01
2022-10-01T03:50:40.239Z,22.10
2022-10-01T03:53:07.061Z,20.31
2022-10-01T03:55:33.949Z,17.73
2022-10-01T03:58:01.396Z,18.68
2022-10-01T04:00:28.158Z,20.25
2022-10-01T04:02:54.986Z,20.91
2022-10-01T04:05:21.769Z,21.48
2022-10-01T04:07:49.817Z,21.65
2022-10-01T04:10:16.639Z,21.84
2022-10-01T04:12:43.985Z,21.89
2022-10-01T04:15:10.733Z,21.87
2022-10-01T04:17:37.500Z,21.93
2022-10-01T04:20:04.278Z,22.29
2022-10-01T04:22:31.106Z,20.60
2022-10-01T04:24:57.891Z,18.10
2022-10-01T04:27:25.847Z,18.74
2022-10-01T04:29:52.603Z,20.32
2022-10-01T04:32:21.525Z,20.99
2022-10-01T04:34:54.530Z,21.38
2022-10-01T04:37:21.444Z,21.60
2022-10-01T04:39:48.556Z,21.85
2022-10-01T04:42:15.320Z,21.83
2022-10-01T04:44:42.075Z,21.90
2022-10-01T04:47:08.975Z,21.98
2022-10-01T04:49:36.016Z,22.17
2022-10-01T04:52:02.756Z,21.24
2022-10-01T04:54:29.526Z,18.13
2022-10-01T04:56:57.596Z,18.27
2022-10-01T04:59:24.328Z,20.06
2022-10-01T05:01:51.126Z,20.48
2022-10-01T05:04:18.376Z,21.20
2022-10-01T05:06:45.255Z,21.36
2022-10-01T05:09:12.038Z,21.43
2022-10-01T05:11:39.031Z,21.68
2022-10-01T05:14:05.783Z,21.93
2022-10-01T05:16:32.704Z,21.95
2022-10-01T05:18:59.536Z,21.95
2022-10-01T05:21:26.295Z,22.02
2022-10-01T05:23:53.129Z,18.59
2022-10-01T05:26:20.093Z,17.16
2022-10-01T05:28:46.849Z,18.64
2022-10-01T05:31:14.158Z,19.88
2022-10-01T05:33:40.949Z,20.51
2022-10-01T05:36:07.782Z,20.98
2022-10-01T05:38:37.406Z,21.24
2022-10-01T05:41:04.332Z,21.39
2022-10-01T05:43:31.354Z,21.50
2022-10-01T05:45:58.206Z,21.73
2022-10-01T05:48:24.980Z,21.72
2022-10-01T05:50:51.739Z,21.98
2022-10-01T05:53:18.494Z,21.99
2022-10-01T05:55:45.272Z,22.00
2022-10-01T05:58:12.049Z,22.16
2022-10-01T06:00:38.824Z,18.61
2022-10-01T06:03:05.655Z,17.68
2022-10-01T06:05:32.530Z,19.06
2022-10-01T06:07:59.305Z,19.92
2022-10-01T06:10:28.076Z,20.77
2022-10-01T06:12:54.917Z,21.09
2022-10-01T06:15:21.725Z,21.41
2022-10-01T06:17:48.466Z,21.56
2022-10-01T06:20:15.212Z,21.55
2022-10-01T06:22:42.892Z,21.76
2022-10-01T06:25:10.158Z,21.84
2022-10-01T06:27:36.909Z,21.90
2022-10-01T06:30:03.696Z,22.08
2022-10-01T06:32:34.158Z,22.21
2022-10-01T06:35:01.755Z,19.15
2022-10-01T06:37:28.637Z,18.13
2022-10-01T06:39:55.372Z,19.52
2022-10-01T06:42:22.189Z,20.45
2022-10-01T06:44:49.001Z,20.90
2022-10-01T06:47:15.780Z,21.33
2022-10-01T06:49:46.745Z,21.68
2022-10-01T06:52:32.937Z,21.71
2022-10-01T06:55:01.218Z,21.91
2022-10-01T06:57:27.981Z,21.89
2022-10-01T06:59:54.743Z,21.98
2022-10-01T07:02:21.523Z,22.09
2022-10-01T07:04:48.322Z,20.94
2022-10-01T07:07:15.069Z,17.61
2022-10-01T07:09:41.816Z,17.95
2022-10-01T07:12:08.788Z,19.83
2022-10-01T07:14:35.573Z,20.85
2022-10-01T07:17:02.344Z,21.03
2022-10-01T07:19:30.906Z,21.27
2022-10-01T07:21:57.678Z,21.50
2022-10-01T07:24:24.506Z,21.77
2022-10-01T07:26:51.269Z,21.87
2022-10-01T07:29:18.106Z,21.91
2022-10-01T07:31:44.884Z,21.98
2022-10-01T07:34:11.660Z,22.21
2022-10-01T07:36:38.412Z,22.04
2022-10-01T07:39:05.149Z,18.70
2022-10-01T07:41:32.455Z,18.29
2022-10-01T07:43:59.399Z,19.48
2022-10-01T07:46:26.140Z,20.58
2022-10-01T07:48:52.901Z,21.20
2022-10-01T07:51:19.687Z,21.25
2022-10-01T07:53:46.482Z,21.47
2022-10-01T07:56:13.913Z,21.79
2022-10-01T07:58:41.087Z,21.84
2022-10-01T08:01:08.026Z,21.89
2022-10-01T08:03:34.799Z,22.14
2022-10-01T08:06:06.747Z,22.04
2022-10-01T08:08:33.572Z,22.17
2022-10-01T08:11:00.327Z,21.08
2022-10-01T08:13:27.236Z,21.61
2022-10-01T08:15:54.685Z,21.97
2022-10-01T08:18:21.515Z,21.96
2022-10-01T08:20:48.274Z,21.47
2022-10-01T08:23:15.023Z,17.98
2022-10-01T08:25:41.802Z,18.34
2022-10-01T08:28:09.013Z,20.05
2022-10-01T08:30:35.884Z,20.91
2022-10-01T08:33:03.823Z,21.34
2022-10-01T08:35:30.625Z,21.64
2022-10-01T08:37:57.397Z,21.76
2022-10-01T08:40:24.157Z,21.83
2022-10-01T08:42:50.916Z,21.89
2022-10-01T08:45:17.664Z,22.03
2022-10-01T08:47:44.407Z,22.17
2022-10-01T08:50:11.160Z,22.17
2022-10-01T08:52:37.931Z,19.06
2022-10-01T08:55:04.678Z,17.42
2022-10-01T08:57:31.460Z,19.14
2022-10-01T08:59:58.667Z,20.27
2022-10-01T09:02:25.441Z,20.98
2022-10-01T09:04:52.240Z,21.34
2022-10-01T09:07:19.165Z,21.44
2022-10-01T09:09:45.983Z,21.72
2022-10-01T09:12:12.732Z,21.77
2022-10-01T09:14:39.480Z,21.85
2022-10-01T09:17:06.303Z,21.97
2022-10-01T09:19:33.067Z,21.96
2022-10-01T09:21:59.869Z,21.76
2022-10-01T09:24:26.629Z,18.08
2022-10-01T09:26:53.394Z,18.09
2022-10-01T09:29:20.158Z,19.84
2022-10-01T09:31:47.183Z,20.61
2022-10-01T09:34:14.014Z,21.08
2022-10-01T09:36:40.760Z,21.44
2022-10-01T09:39:07.510Z,21.62
2022-10-01T09:41:34.540Z,21.66
2022-10-01T09:44:01.869Z,21.75
2022-10-01T09:46:28.612Z,21.97
2022-10-01T09:48:55.571Z,22.04
2022-10-01T09:51:22.364Z,22.18
2022-10-01T09:53:49.161Z,19.18
2022-10-01T09:56:16.102Z,18.50
2022-10-01T09:58:43.091Z,19.58
2022-10-01T10:01:09.916Z,20.64
2022-10-01T10:03:36.790Z,21.17
2022-10-01T10:06:03.994Z,21.52
2022-10-01T10:08:30.796Z,21.68
2022-10-01T10:10:58.480Z,21.75
2022-10-01T10:13:26.428Z,22.08
2022-10-01T10:15:53.220Z,21.95
2022-10-01T10:18:23.826Z,22.23
2022-10-01T10:20:50.846Z,19.64
2022-10-01T10:23:17.645Z,18.35
2022-10-01T10:25:44.413Z,19.11
2022-10-01T10:28:11.236Z,20.47
2022-10-01T10:30:38.076Z,21.14
2022-10-01T10:33:04.974Z,21.53
2022-10-01T10:35:31.841Z,21.65
2022-10-01T10:37:58.604Z,21.77
2022-10-01T10:40:29.296Z,21.91
2022-10-01T10:42:56.660Z,22.17
2022-10-01T10:45:23.457Z,22.14
2022-10-01T10:47:50.230Z,21.83
2022-10-01T10:50:16.968Z,18.28
2022-10-01T10:52:45.696Z,18.36
2022-10-01T10:55:13.680Z,19.84
2022-10-01T10:57:40.429Z,20.61
2022-10-01T11:00:08.182Z,21.24
2022-10-01T11:02:35.028Z,21.36
2022-10-01T11:05:01.926Z,21.62
2022-10-01T11:07:28.757Z,21.73
2022-10-01T11:09:55.571Z,21.88
2022-10-01T11:12:22.333Z,21.98
2022-10-01T11:14:49.080Z,22.15
2022-10-01T11:17:18.036Z,21.13
2022-10-01T11:19:44.837Z,18.51
2022-10-01T11:22:11.601Z,18.82
2022-10-01T11:24:38.376Z,20.27
2022-10-01T11:27:05.122Z,20.81
2022-10-01T11:29:31.877Z,21.26
2022-10-01T11:31:58.879Z,21.64
2022-10-01T11:34:25.666Z,21.72
2022-10-01T11:36:55.454Z,21.80
2022-10-01T11:39:22.527Z,22.06
2022-10-01T11:41:49.385Z,22.09
2022-10-01T11:44:16.412Z,22.18
2022-10-01T11:46:43.229Z,22.32
2022-10-01T11:49:10.090Z,19.09
2022-10-01T11:51:36.835Z,18.55
2022-10-01T11:54:03.633Z,19.54
2022-10-01T11:56:49.014Z,20.61
2022-10-01T11:59:15.781Z,21.29
2022-10-01T12:01:42.581Z,21.50
2022-10-01T12:04:09.368Z,21.59
2022-10-01T12:06:36.441Z,21.93
2022-10-01T12:09:03.360Z,21.89
2022-10-01T12:11:30.109Z,22.14
2022-10-01T12:13:56.881Z,22.14
2022-10-01T12:16:23.817Z,19.12
2022-10-01T12:18:50.594Z,18.47
2022-10-01T12:21:17.349Z,19.45
2022-10-01T12:23:44.097Z,20.67
2022-10-01T12:26:10.850Z,21.32
2022-10-01T12:28:37.632Z,21.36
2022-10-01T12:31:04.446Z,21.61
2022-10-01T12:33:32.470Z,21.72
2022-10-01T12:35:59.236Z,21.98
2022-10-01T12:38:25.981Z,21.99
2022-10-01T12:40:52.726Z,22.31
2022-10-01T12:43:20.673Z,22.24
2022-10-01T12:45:47.674Z,18.93
2022-10-01T12:48:16.305Z,18.72
2022-10-01T12:50:43.065Z,19.98
2022-10-01T12:53:09.800Z,20.78
2022-10-01T12:55:37.074Z,21.45
2022-10-01T12:58:03.849Z,21.49
2022-10-01T13:00:31.816Z,21.91
2022-10-01T13:02:58.698Z,21.78
2022-10-01T13:05:25.456Z,21.93
2022-10-01T13:07:52.554Z,22.09
2022-10-01T13:10:19.288Z,22.14
2022-10-01T13:12:46.154Z,21.89
2022-10-01T13:15:12.902Z,18.74
2022-10-01T13:17:39.767Z,18.76
2022-10-01T13:20:06.532Z,20.30
2022-10-01T13:22:33.270Z,21.01
2022-10-01T13:25:00.825Z,21.28
2022-10-01T13:27:28.339Z,21.71
2022-10-01T13:29:55.129Z,21.91
2022-10-01T13:32:21.872Z,21.96
2022-10-01T13:34:48.628Z,22.08
2022-10-01T13:37:15.439Z,22.07
2022-10-01T13:39:43.330Z,20.22
2022-10-01T13:42:10.093Z,18.47
2022-10-01T13:44:36.863Z,18.85
2022-10-01T13:47:03.807Z,20.58
2022-10-01T13:49:30.571Z,21.10
2022-10-01T13:51:57.328Z,21.53
2022-10-01T13:54:24.170Z,21.73
2022-10-01T13:56:50.942Z,21.79
2022-10-01T13:59:17.681Z,21.77
2022-10-01T14:01:44.461Z,22.11
2022-10-01T14:04:11.221Z,22.00
2022-10-01T14:06:38.050Z,22.25
2022-10-01T14:09:04.851Z,19.35
2022-10-01T14:11:50.455Z,18.82
2022-10-01T14:14:35.878Z,19.81
2022-10-01T14:17:02.646Z,20.91
2022-10-01T14:19:29.445Z,21.39
2022-10-01T14:21:56.241Z,21.68
2022-10-01T14:24:23.008Z,21.66
2022-10-01T14:26:49.761Z,21.98
2022-10-01T14:29:16.539Z,21.97
2022-10-01T14:31:46.439Z,21.94
2022-10-01T14:34:15.768Z,22.26
2022-10-01T14:36:42.595Z,19.76
2022-10-01T14:39:09.369Z,18.45
2022-10-01T14:41:36.185Z,19.06
2022-10-01T14:44:02.963Z,20.63
2022-10-01T14:46:29.793Z,21.16
2022-10-01T14:48:56.574Z,21.40
2022-10-01T14:51:23.337Z,21.73
2022-10-01T14:53:50.105Z,21.91
2022-10-01T14:56:16.878Z,21.98
2022-10-01T14:58:43.628Z,21.98
2022-10-01T15:01:10.388Z,21.98
2022-10-01T15:03:37.414Z,21.22
2022-10-01T15:06:04.265Z,18.63
2022-10-01T15:08:31.058Z,18.65
2022-10-01T15:10:57.868Z,20.58
2022-10-01T15:13:24.768Z,21.10
2022-10-01T15:15:51.537Z,21.46
2022-10-01T15:18:18.298Z,21.53
2022-10-01T15:20:45.044Z,21.89
2022-10-01T15:23:11.811Z,21.93
2022-10-01T15:25:38.558Z,22.17
2022-10-01T15:28:06.978Z,22.17
2022-10-01T15:30:33.787Z,22.01
2022-10-01T15:33:00.545Z,18.91
2022-10-01T15:35:27.309Z,18.70
2022-10-01T15:37:54.068Z,20.12
2022-10-01T15:40:20.814Z,20.97
2022-10-01T15:42:48.484Z,21.43
2022-10-01T15:45:15.267Z,21.66
2022-10-01T15:47:42.535Z,21.81
2022-10-01T15:50:09.300Z,21.91
2022-10-01T15:52:54.570Z,21.97
2022-10-01T15:55:24.166Z,22.12
2022-10-01T15:57:50.964Z,19.10
2022-10-01T16:00:17.722Z,18.63
2022-10-01T16:02:44.460Z,19.82
2022-10-01T16:05:11.209Z,20.87
2022-10-01T16:07:40.128Z,21.16
2022-10-01T16:10:06.873Z,21.65
2022-10-01T16:12:33.612Z,21.80
2022-10-01T16:15:00.453Z,21.90
2022-10-01T16:17:27.839Z,22.01
2022-10-01T16:19:56.608Z,22.14
2022-10-01T16:22:23.405Z,22.10
2022-10-01T16:24:50.155Z,22.19
2022-10-01T16:27:17.989Z,19.57
2022-10-01T16:29:44.760Z,17.84
2022-10-01T16:32:11.511Z,18.31
2022-10-01T16:34:38.402Z,19.74
2022-10-01T16:37:05.157Z,20.80
2022-10-01T16:39:31.924Z,21.21
2022-10-01T16:42:22.289Z,21.37
2022-10-01T16:44:45.546Z,21.87
2022-10-01T16:47:12.347Z,21.82
2022-10-01T16:49:39.101Z,21.88
2022-10-01T16:52:06.171Z,22.00
2022-10-01T16:54:32.918Z,22.02
2022-10-01T16:57:00.352Z,22.11
2022-10-01T16:59:27.106Z,22.01
2022-10-01T17:01:54.853Z,18.60
2022-10-01T17:04:21.667Z,17.30
2022-10-01T17:06:48.431Z,18.64
2022-10-01T17:09:16.172Z,20.06
2022-10-01T17:11:43.572Z,20.77
2022-10-01T17:14:10.331Z,21.12
2022-10-01T17:16:37.383Z,21.44
2022-10-01T17:19:04.348Z,21.55
2022-10-01T17:21:31.157Z,21.61
2022-10-01T17:23:58.009Z,21.63
2022-10-01T17:26:24.805Z,21.88
2022-10-01T17:28:51.631Z,21.93
2022-10-01T17:31:18.492Z,21.86
2022-10-01T17:33:45.506Z,22.06
2022-10-01T17:36:12.378Z,20.97
2022-10-01T17:38:40.143Z,17.95
2022-10-01T17:41:07.401Z,16.70
2022-10-01T17:43:34.351Z,18.83
2022-10-01T17:46:01.345Z,20.05
2022-10-01T17:48:28.197Z,20.53
2022-10-01T17:50:54.961Z,20.91
2022-10-01T17:53:21.698Z,21.24
2022-10-01T17:55:48.446Z,21.59
2022-10-01T17:58:15.199Z,21.60
2022-10-01T18:00:42.004Z,21.69
2022-10-01T18:03:09.034Z,21.89
2022-10-01T18:05:35.818Z,21.87
2022-10-01T18:08:02.581Z,21.95
2022-10-01T18:10:29.473Z,22.00
2022-10-01T18:12:57.538Z,19.74
2022-10-01T18:15:24.293Z,17.64
2022-10-01T18:18:48.542Z,17.40
2022-10-01T18:20:40.918Z,19.69
2022-10-01T18:23:07.712Z,20.46
2022-10-01T18:25:34.497Z,20.99
2022-10-01T18:28:01.288Z,21.22
2022-10-01T18:30:28.058Z,21.42
2022-10-01T18:32:56.923Z,21.60
2022-10-01T18:35:23.923Z,21.67
2022-10-01T18:37:50.671Z,21.77
2022-10-01T18:40:17.550Z,21.69
2022-10-01T18:42:44.351Z,21.91
2022-10-01T18:45:11.114Z,22.14
2022-10-01T18:47:37.865Z,22.17
2022-10-01T18:50:04.684Z,19.70
2022-10-01T18:52:31.429Z,17.47
2022-10-01T18:54:58.213Z,17.47
2022-10-01T18:57:25.007Z,19.28
2022-10-01T18:59:51.756Z,20.45
2022-10-01T19:02:18.610Z,20.81
2022-10-01T19:04:45.488Z,21.11
2022-10-01T19:07:12.242Z,21.28
2022-10-01T19:09:38.990Z,21.49
2022-10-01T19:12:05.820Z,21.67
2022-10-01T19:14:32.555Z,21.69
2022-10-01T19:16:59.346Z,21.81
2022-10-01T19:19:26.132Z,22.01
2022-10-01T19:21:53.500Z,21.79
2022-10-01T19:24:20.379Z,21.94
2022-10-01T19:26:47.143Z,22.20
2022-10-01T19:29:13.904Z,22.14
2022-10-01T19:31:40.666Z,20.08
2022-10-01T19:34:07.597Z,17.80
2022-10-01T19:36:34.820Z,17.18
2022-10-01T19:39:01.651Z,19.21
2022-10-01T19:41:28.429Z,20.26
2022-10-01T19:43:55.230Z,21.08
2022-10-01T19:46:22.026Z,21.22
2022-10-01T19:48:48.894Z,21.31
2022-10-01T19:51:15.684Z,21.38
2022-10-01T19:53:42.642Z,21.59
2022-10-01T19:56:09.406Z,21.65
2022-10-01T19:58:36.173Z,21.85
2022-10-01T20:01:02.981Z,21.95
2022-10-01T20:03:29.761Z,22.00
2022-10-01T20:05:56.586Z,22.01
2022-10-01T20:08:28.732Z,22.05
2022-10-01T20:10:55.568Z,20.86
2022-10-01T20:13:22.310Z,18.17
2022-10-01T20:15:49.064Z,17.00
2022-10-01T20:18:15.981Z,19.03
2022-10-01T20:20:43.470Z,20.26
2022-10-01T20:23:11.002Z,20.72
2022-10-01T20:25:37.782Z,21.13
2022-10-01T20:28:05.005Z,21.39
2022-10-01T20:30:32.645Z,21.54
2022-10-01T20:33:01.424Z,21.47
2022-10-01T20:35:28.174Z,21.73
2022-10-01T20:37:54.966Z,21.80
2022-10-01T20:40:24.997Z,22.04
2022-10-01T20:42:51.820Z,21.93
2022-10-01T20:45:18.607Z,22.03
2022-10-01T20:47:47.564Z,22.04
2022-10-01T20:50:14.320Z,21.96
2022-10-01T20:52:41.062Z,19.24
2022-10-01T20:55:07.835Z,17.65
2022-10-01T20:57:34.836Z,18.27
2022-10-01T21:00:02.335Z,19.65
2022-10-01T21:02:29.150Z,20.70
2022-10-01T21:04:56.308Z,21.13
2022-10-01T21:07:23.519Z,21.21
2022-10-01T21:09:50.292Z,21.50
2022-10-01T21:12:17.369Z,21.58
2022-10-01T21:14:45.500Z,21.54
2022-10-01T21:17:12.273Z,21.75
2022-10-01T21:19:39.015Z,21.83
2022-10-01T21:22:05.809Z,21.96
2022-10-01T21:24:32.711Z,22.15
2022-10-01T21:26:59.497Z,22.16
2022-10-01T21:29:26.492Z,19.51
2022-10-01T21:31:53.317Z,17.64
2022-10-01T21:34:20.124Z,17.58
2022-10-01T21:36:46.878Z,19.29
2022-10-01T21:39:13.634Z,20.30
2022-10-01T21:41:41.739Z,21.04
2022-10-01T21:44:11.116Z,21.07
2022-10-01T21:46:38.618Z,21.38
2022-10-01T21:49:05.592Z,21.56
2022-10-01T21:51:32.338Z,21.51
2022-10-01T21:53:59.165Z,21.60
2022-10-01T21:56:26.389Z,21.71
2022-10-01T21:58:53.129Z,21.89
2022-10-01T22:01:19.988Z,22.00
2022-10-01T22:03:46.776Z,22.09
2022-10-01T22:06:14.825Z,22.10
2022-10-01T22:08:41.638Z,20.65
2022-10-01T22:11:08.381Z,18.01
2022-10-01T22:13:35.285Z,16.88
2022-10-01T22:16:02.271Z,18.95
2022-10-01T22:18:29.082Z,20.20
2022-10-01T22:20:55.849Z,20.67
2022-10-01T22:23:22.641Z,20.94
2022-10-01T22:25:49.425Z,21.27
2022-10-01T22:28:16.237Z,21.61
2022-10-01T22:30:43.056Z,21.71
2022-10-01T22:33:09.800Z,21.75
2022-10-01T22:35:36.557Z,21.67
2022-10-01T22:38:03.373Z,21.87
2022-10-01T22:40:30.948Z,21.90
2022-10-01T22:42:57.706Z,22.11
2022-10-01T22:45:24.519Z,22.21
2022-10-01T22:47:51.318Z,20.68
2022-10-01T22:50:18.077Z,18.18
2022-10-01T22:52:44.844Z,16.94
2022-10-01T22:55:11.618Z,18.90
2022-10-01T22:57:38.370Z,19.99
2022-10-01T23:00:05.223Z,20.80
2022-10-01T23:02:32.079Z,21.08
2022-10-01T23:04:58.913Z,21.39
2022-10-01T23:07:25.769Z,21.44
2022-10-01T23:09:52.517Z,21.72
2022-10-01T23:12:19.262Z,21.81
2022-10-01T23:14:46.026Z,21.77
2022-10-01T23:17:12.773Z,21.72
2022-10-01T23:19:39.764Z,22.00
2022-10-01T23:22:06.576Z,22.09
2022-10-01T23:24:33.318Z,22.24
2022-10-01T23:27:00.073Z,22.27
2022-10-01T23:29:26.869Z,19.90
2022-10-01T23:31:53.675Z,17.69
2022-10-01T23:34:20.492Z,17.42
2022-10-01T23:36:47.294Z,19.17
2022-10-01T23:39:14.041Z,20.14
2022-10-01T23:41:40.797Z,20.96
2022-10-01T23:44:07.578Z,21.11
2022-10-01T23:46:34.740Z,21.22
2022-10-01T23:49:01.721Z,21.56
2022-10-01T23:51:28.525Z,21.60
2022-10-01T23:53:55.297Z,21.72
2022-10-01T23:56:40.901Z,21.93
2022-10-01T23:59:07.644Z,21.84
